createdAt,value
2023-03-23T16:00:13.919Z,35.74
2023-03-23T16:02:47.008Z,36.22
2023-03-23T16:05:22.630Z,37.05
2023-03-23T16:07:56.913Z,37.49
2023-03-23T16:10:30.306Z,38.43
2023-03-23T16:13:04.430Z,39.02
2023-03-23T16:15:33.405Z,39.11
2023-03-23T16:18:10.881Z,39.29
2023-03-23T16:20:47.792Z,39.60
2023-03-23T16:23:29.690Z,39.54
2023-03-23T16:26:00.697Z,40.12
2023-03-23T16:28:37.343Z,40.36
2023-03-23T16:31:12.039Z,40.71
2023-03-23T16:33:49.076Z,40.86
2023-03-23T16:36:22.836Z,41.10
2023-03-23T16:38:57.029Z,41.38
2023-03-23T16:41:28.395Z,41.76
2023-03-23T16:43:58.564Z,41.75
2023-03-23T16:46:28.983Z,42.19
2023-03-23T16:49:00.882Z,42.27
2023-03-23T16:51:31.286Z,42.55
2023-03-23T16:54:06.405Z,42.69
2023-03-23T16:56:35.640Z,42.79
2023-03-23T16:59:10.837Z,43.31
2023-03-23T17:01:52.441Z,43.59
2023-03-23T17:04:34.197Z,44.23
2023-03-23T17:07:03.650Z,43.92
2023-03-23T17:09:37.238Z,44.28
2023-03-23T17:12:09.171Z,44.42
2023-03-23T17:14:41.498Z,44.70
2023-03-23T17:17:18.920Z,45.15
2023-03-23T17:20:00.922Z,45.22
2023-03-23T17:22:31.043Z,45.48
2023-03-23T17:25:10.318Z,45.64
2023-03-23T17:27:45.146Z,45.93
2023-03-23T17:30:18.336Z,46.08
2023-03-23T17:33:12.635Z,46.48
2023-03-23T17:35:47.982Z,47.03
2023-03-23T17:38:19.455Z,46.92
2023-03-23T17:41:08.221Z,47.13
2023-03-23T17:43:41.224Z,47.44
2023-03-23T17:46:11.954Z,47.67
2023-03-23T17:48:49.144Z,48.22
2023-03-23T17:51:22.171Z,48.47
2023-03-23T17:54:03.416Z,48.71
2023-03-23T17:56:35.114Z,48.83
2023-03-23T17:59:06.828Z,49.59
2023-03-23T18:01:49.796Z,49.55
2023-03-23T18:04:41.153Z,49.72
2023-03-23T18:07:24.873Z,50.11
2023-03-23T18:12:50.082Z,50.50
2023-03-23T18:15:28.249Z,50.41
2023-03-23T18:18:27.160Z,50.33
2023-03-23T18:21:29.956Z,50.47
2023-03-23T18:24:00.237Z,50.51
2023-03-23T18:26:41.283Z,50.64
2023-03-23T18:29:27.136Z,50.71
2023-03-23T18:32:22.084Z,50.91
2023-03-23T18:35:00.559Z,51.03
2023-03-23T18:37:40.144Z,51.04
2023-03-23T18:40:26.025Z,51.24
2023-03-23T18:43:01.021Z,51.29
2023-03-23T18:45:39.979Z,51.42
2023-03-23T18:48:28.664Z,51.42
2023-03-23T18:51:03.152Z,51.48
2023-03-23T18:53:50.185Z,51.50
2023-03-23T18:56:33.931Z,51.75
2023-03-23T18:59:09.712Z,51.84
2023-03-23T19:01:46.291Z,51.94
2023-03-23T19:04:27.769Z,51.75
2023-03-23T19:07:02.835Z,52.13
2023-03-23T19:09:38.050Z,52.19
2023-03-23T19:12:19.971Z,51.58
2023-03-23T19:15:02.727Z,51.62
2023-03-23T19:17:34.188Z,51.45
2023-03-23T19:20:07.211Z,51.57
2023-03-23T19:22:38.171Z,51.60
2023-03-23T19:25:28.939Z,51.69
2023-03-23T19:30:44.905Z,52.35
2023-03-23T19:33:20.124Z,52.42
2023-03-23T19:36:10.827Z,52.49
2023-03-23T19:38:49.280Z,52.71
2023-03-23T19:41:36.341Z,52.55
2023-03-23T19:44:14.576Z,52.81
2023-03-23T19:47:10.052Z,52.97
2023-03-23T19:50:08.277Z,52.96
2023-03-23T19:52:42.162Z,53.02
2023-03-23T19:55:15.757Z,52.74
2023-03-23T19:57:54.252Z,53.01
2023-03-23T20:00:35.841Z,52.99
2023-03-23T20:03:23.271Z,53.00
2023-03-23T20:06:10.061Z,53.43
2023-03-23T20:09:10.168Z,53.49
2023-03-23T20:11:43.842Z,53.62
2023-03-23T20:14:29.393Z,53.55
2023-03-23T20:17:03.733Z,53.47
2023-03-23T20:19:40.283Z,53.79
2023-03-23T20:22:15.053Z,53.59
2023-03-23T20:24:48.291Z,53.93
2023-03-23T20:27:23.398Z,54.05
2023-03-23T20:30:20.114Z,54.05
2023-03-23T20:32:59.613Z,54.48
2023-03-23T20:35:38.136Z,54.31
2023-03-23T20:38:09.539Z,54.19
2023-03-23T20:40:41.049Z,54.47
2023-03-23T20:43:17.518Z,53.96
2023-03-23T20:45:51.168Z,54.26
2023-03-23T20:48:28.621Z,53.88
2023-03-23T20:51:11.380Z,53.08
2023-03-23T20:53:41.417Z,53.29
2023-03-23T20:56:12.286Z,53.42
2023-03-23T20:58:48.882Z,53.56
2023-03-23T21:01:28.630Z,52.24
2023-03-23T21:04:16.754Z,52.24
2023-03-23T21:06:55.797Z,52.48
2023-03-23T21:09:26.141Z,52.78
2023-03-23T21:11:58.285Z,52.79
2023-03-23T21:14:28.245Z,53.08
2023-03-23T21:17:01.498Z,53.15
2023-03-23T21:19:37.926Z,53.24
2023-03-23T21:22:10.204Z,53.31
2023-03-23T21:24:41.181Z,53.40
2023-03-23T21:27:23.434Z,53.60
2023-03-23T21:29:57.450Z,53.67
2023-03-23T21:32:48.027Z,53.67
2023-03-23T21:35:30.205Z,53.63
2023-03-23T21:38:06.028Z,53.72
2023-03-23T21:40:48.556Z,53.65
2023-03-23T21:43:17.277Z,53.87
2023-03-23T21:45:47.936Z,53.88
2023-03-23T21:48:26.532Z,53.91
2023-03-23T21:50:57.740Z,53.83
2023-03-23T21:53:28.594Z,53.96
2023-03-23T21:56:07.530Z,53.93
2023-03-23T21:58:37.085Z,54.37
2023-03-23T22:01:12.283Z,54.31
2023-03-23T22:03:45.185Z,54.09
2023-03-23T22:06:18.543Z,53.25
2023-03-23T22:08:51.045Z,52.20
2023-03-23T22:11:23.452Z,52.36
2023-03-23T22:13:53.843Z,52.26
2023-03-23T22:16:24.288Z,51.92
2023-03-23T22:19:00.998Z,52.00
2023-03-23T22:21:32.334Z,51.82
2023-03-23T22:24:09.789Z,53.05
2023-03-23T22:26:39.161Z,52.95
2023-03-23T22:29:07.588Z,52.94
2023-03-23T22:31:42.620Z,53.06
2023-03-23T22:34:18.243Z,53.04
2023-03-23T22:36:50.101Z,53.22
2023-03-23T22:39:19.434Z,53.36
2023-03-23T22:41:59.038Z,53.55
2023-03-23T22:44:29.197Z,53.81
2023-03-23T22:46:58.400Z,53.79
2023-03-23T22:49:31.413Z,53.87
2023-03-23T22:52:05.178Z,53.99
2023-03-23T22:54:36.628Z,54.27
2023-03-23T22:57:08.305Z,54.14
2023-03-23T22:59:39.434Z,54.02
2023-03-23T23:02:11.292Z,54.04
2023-03-23T23:04:46.778Z,53.94
2023-03-23T23:07:21.300Z,54.20
2023-03-23T23:09:51.426Z,54.37
2023-03-23T23:12:30.346Z,54.56
2023-03-23T23:15:13.270Z,54.77
2023-03-23T23:17:44.169Z,55.08
2023-03-23T23:20:21.482Z,55.06
2023-03-23T23:22:50.876Z,55.29
2023-03-23T23:25:24.963Z,55.14
2023-03-23T23:27:54.630Z,55.60
2023-03-23T23:30:26.259Z,55.86
2023-03-23T23:32:56.871Z,56.00
2023-03-23T23:35:37.116Z,56.24
2023-03-23T23:38:07.337Z,56.66
2023-03-23T23:40:35.820Z,56.88
2023-03-23T23:43:16.077Z,57.14
2023-03-23T23:45:50.649Z,57.42
2023-03-23T23:48:26.721Z,58.48
2023-03-23T23:51:04.516Z,59.01
2023-03-23T23:53:34.915Z,58.96
2023-03-23T23:56:06.636Z,59.16
2023-03-23T23:58:35.995Z,58.78
